KPKB/PKB METAR and TAF weather

Enter ICAO airport designator
Station Type Date Time Source
KPKB METAR 2019/05/26 23:53 UTC NOAA

KPKB 262353Z 23005KT 10SM SCT100 21/18 A3004 RMK AO2 LTG DSNT N AND NE RAE04 SLP167 P0000 60016 T02060183 10300 20206 53004 $


Station Type Date Time Source
KPKB Decoded METAR 2019/05/26 23:53 UTC NOAA

MID-OHIO VALLEY RGNL AIRPORT, WV, United States (KPKB) 39-20N 81-27W
May 26, 2019 - 07:53 PM EDT / 2019.05.26 2353 UTC
Wind: from the SW (230 degrees) at 6 MPH (5 KT):0
Visibility: 10 mile(s):0
Sky conditions: partly cloudy
Weather: Lightning observed
Precipitation last hour: A trace
Temperature: 69.1 F (20.6 C)
Dew Point: 64.9 F (18.3 C)
Relative Humidity: 86%
Pressure (altimeter): 30.04 in. Hg (1017 hPa)
Pressure tendency: 0.01 inches (0.4 hPa) higher than three hours ago
ob: KPKB 262353Z 23005KT 10SM SCT100 21/18 A3004 RMK AO2 LTG DSNT N AND NE RAE04 SLP167 P0000 60016 T02060183 10300 20206 53004
cycle: 0

Station Type Date Time Source
KPKB TAF 2019/05/26 18:03 UTC NOAA

TAF KPKB 261800Z 2618/2718 27008KT P6SM VCTS BKN040CB
TEMPO 2618/2620 4SM SHRA BR OVC025
FM262000 25008G14KT P6SM SHRA OVC040
TEMPO 2620/2622 4SM +TSRA BR OVC025CB
FM262300 27007KT 5SM SHRA BR VCTS OVC040CB
FM270200 VRB03KT P6SM VCTS BKN050CB
FM270500 00000KT 6SM BR BKN014
FM271000 00000KT 5SM BR OVC009
FM271200 00000KT 3SM BR OVC025
FM271400 00000KT P6SM BKN035

Example: see airport list